Terminal Aerodrome Forecast
Issued by NWS

Home | Current Version | Previous Version | Text Only | Print | Product List | Glossary On
Versions: 1 2 3 4 5 6 7 8 9 10 11 12 13 14 15 16 17 18 19 20 21 22 23 24 25 26 27 28 29 30 31 32
000
FTUS45 KSLC 230546 AAA
TAFPVU
TAF AMD
KPVU 230546Z 2306/2406 16009KT P6SM -SHRA SCT080 BKN100
      TEMPO 2306/2307 23008KT P6SM -TSRA OVC100CB
     FM231000 VRB04KT P6SM VCSH SCT100 BKN120
     FM231900 22007KT P6SM SCT100 BKN120
     FM240200 VRB04KT P6SM SCT120=

USA.gov is the U.S. government's official web portal to all federal, state and local government web resources and services.